Time;durP1;ratioP1;P1;durP2;ratioP2;P2;SDS_P1;SDS_P2;PMS_P1;PMS_P2;Temp;Humidity;BMP_temperature;BMP_pressure;BME280_temperature;BME280_humidity;BME280_pressure;Samples;Min_cycle;Max_cycle;Signal;HPM_P1;HPM_P2
2023/06/11 00:00:23;;;;;;;16.42;3.33;;;36.40;24.80;;;;;;5080333;28;20483;-65
2023/06/11 00:02:54;;;;;;;12.32;3.00;;;36.30;26.20;;;;;;5082838;28;20030;-69
2023/06/11 00:05:27;;;;;;;13.88;2.90;;;36.50;28.30;;;;;;5083858;28;20069;-68
2023/06/11 00:07:55;;;;;;;16.63;3.75;;;36.60;24.80;;;;;;5084433;28;20039;-69
2023/06/11 00:10:23;;;;;;;21.40;2.95;;;36.70;24.20;;;;;;5083272;28;20480;-69
2023/06/11 00:12:49;;;;;;;16.73;3.30;;;36.70;24.20;;;;;;5085547;28;20559;-67
2023/06/11 00:15:16;;;;;;;8.05;2.63;;;36.80;24.10;;;;;;5081534;28;20034;-64
2023/06/11 00:17:42;;;;;;;15.52;2.97;;;36.80;25.40;;;;;;5083663;28;20069;-65
2023/06/11 00:20:11;;;;;;;19.50;2.28;;;36.60;24.30;;;;;;5086111;28;20054;-65
2023/06/11 00:22:41;;;;;;;14.43;4.10;;;36.40;24.10;;;;;;5084932;28;20508;-71
2023/06/11 00:25:09;;;;;;;15.80;4.72;;;36.40;24.40;;;;;;5084385;28;20051;-69
2023/06/11 00:27:37;;;;;;;14.57;5.65;;;36.30;24.40;;;;;;5084514;28;20040;-70
2023/06/11 00:30:05;;;;;;;22.67;6.05;;;36.20;24.70;;;;;;5083029;28;20086;-68
2023/06/11 00:32:35;;;;;;;13.52;5.53;;;36.10;24.70;;;;;;5085939;28;20039;-67
2023/06/11 00:35:08;;;;;;;43.50;4.47;;;36.20;25.60;;;;;;5084540;28;20031;-65
2023/06/11 00:37:35;;;;;;;11.65;3.45;;;36.20;26.10;;;;;;5083749;28;20044;-66
2023/06/11 00:40:02;;;;;;;20.90;7.35;;;36.10;29.40;;;;;;5085062;28;20053;-63
2023/06/11 00:42:30;;;;;;;31.73;10.32;;;35.80;25.70;;;;;;5084329;28;20042;-64
2023/06/11 00:44:56;;;;;;;19.73;2.92;;;35.70;25.90;;;;;;5079544;28;20042;-67
2023/06/11 00:47:23;;;;;;;36.20;10.63;;;35.50;25.90;;;;;;5078405;28;20037;-68
2023/06/11 00:49:50;;;;;;;33.08;9.23;;;35.50;26.40;;;;;;5082836;28;20074;-66
2023/06/11 00:52:18;;;;;;;18.80;3.53;;;35.50;26.40;;;;;;5084260;28;20478;-63
2023/06/11 00:54:45;;;;;;;22.58;3.10;;;35.40;26.60;;;;;;5081407;28;20101;-65
2023/06/11 00:57:12;;;;;;;16.25;3.13;;;35.40;26.50;;;;;;5081787;28;20068;-63
2023/06/11 00:59:39;;;;;;;19.08;3.00;;;35.40;26.10;;;;;;5082478;28;20099;-64
2023/06/11 01:02:33;;;;;;;23.08;2.97;;;35.20;26.20;;;;;;5084550;28;20055;-67
2023/06/11 01:05:03;;;;;;;32.08;3.67;;;35.10;26.20;;;;;;5081273;28;20042;-63
2023/06/11 01:07:35;;;;;;;18.35;3.30;;;35.00;26.80;;;;;;5085979;28;20448;-64
2023/06/11 01:10:03;;;;;;;14.05;3.30;;;35.00;26.60;;;;;;5083269;28;20133;-65
2023/06/11 01:12:30;;;;;;;21.38;4.07;;;34.90;26.70;;;;;;5083589;28;20075;-66
2023/06/11 01:14:59;;;;;;;11.00;3.80;;;34.80;26.60;;;;;;5086912;28;20075;-66
2023/06/11 01:17:40;;;;;;;19.60;4.60;;;34.80;27.00;;;;;;5081749;28;20066;-64
2023/06/11 01:20:12;;;;;;;25.55;3.95;;;34.80;27.50;;;;;;5086170;28;20063;-64
2023/06/11 01:23:14;;;;;;;11.50;3.33;;;34.80;26.60;;;;;;5084605;28;20127;-63
2023/06/11 01:26:18;;;;;;;17.73;3.38;;;34.70;27.70;;;;;;5099903;28;20074;-64
2023/06/11 01:28:54;;;;;;;23.27;4.30;;;34.60;27.50;;;;;;5080642;28;20126;-65
2023/06/11 01:31:21;;;;;;;;;;;34.50;28.30;;;;;;5079430;28;20063;-64
2023/06/11 01:33:48;;;;;;;13.77;3.83;;;34.30;28.60;;;;;;5083001;28;20331;-62
2023/06/11 01:36:17;;;;;;;28.25;4.82;;;34.20;29.00;;;;;;5079512;28;20445;-64
2023/06/11 01:38:44;;;;;;;21.05;4.40;;;34.20;29.10;;;;;;5079721;28;20058;-64
2023/06/11 01:41:14;;;;;;;13.73;3.20;;;34.20;30.00;;;;;;5082957;28;20041;-65
2023/06/11 01:43:41;;;;;;;16.45;3.88;;;34.00;28.80;;;;;;5078620;28;20042;-63
2023/06/11 01:46:07;;;;;;;23.10;3.38;;;33.90;28.70;;;;;;5080193;28;20052;-63
2023/06/11 01:48:35;;;;;;;18.83;3.15;;;33.70;28.60;;;;;;5080975;28;20217;-62
2023/06/11 01:51:02;;;;;;;17.40;3.35;;;33.70;28.80;;;;;;5078062;28;20583;-62
2023/06/11 01:53:28;;;;;;;9.90;3.53;;;33.60;28.40;;;;;;5082328;28;20058;-61
2023/06/11 01:55:58;;;;;;;18.63;7.45;;;33.50;28.00;;;;;;5081754;28;20534;-62
2023/06/11 01:58:24;;;;;;;11.82;5.20;;;33.40;29.10;;;;;;5082236;28;20085;-63
2023/06/11 02:00:51;;;;;;;19.70;3.30;;;33.30;27.20;;;;;;5080086;28;20045;-64
2023/06/11 02:03:17;;;;;;;19.88;3.40;;;33.20;27.40;;;;;;5082018;28;20044;-62
2023/06/11 02:05:44;;;;;;;12.77;3.55;;;33.20;27.00;;;;;;5081477;28;20119;-65
2023/06/11 02:08:11;;;;;;;30.33;4.13;;;33.10;26.70;;;;;;5082043;28;20049;-64
2023/06/11 02:10:37;;;;;;;21.65;4.22;;;33.00;27.00;;;;;;5080629;28;20532;-64
2023/06/11 02:13:03;;;;;;;27.25;3.80;;;32.90;27.20;;;;;;5080320;28;20506;-62
2023/06/11 02:15:30;;;;;;;25.05;4.85;;;32.80;27.30;;;;;;5081297;28;20483;-62
2023/06/11 02:17:56;;;;;;;18.30;3.58;;;32.70;27.40;;;;;;5080808;28;20048;-63
2023/06/11 02:20:23;;;;;;;12.55;3.15;;;32.50;26.80;;;;;;5077199;28;20059;-61
2023/06/11 02:22:49;;;;;;;19.10;4.10;;;32.30;26.40;;;;;;5075201;28;20139;-62
2023/06/11 02:25:16;;;;;;;13.45;4.05;;;32.30;25.50;;;;;;5079582;28;20422;-62
2023/06/11 02:27:42;;;;;;;14.40;3.60;;;32.30;25.60;;;;;;5080229;28;20059;-62
2023/06/11 02:30:09;;;;;;;17.15;3.35;;;32.10;25.50;;;;;;5085137;28;20080;-63
2023/06/11 02:32:35;;;;;;;27.85;4.03;;;32.00;25.00;;;;;;5077228;28;20069;-62
2023/06/11 02:35:02;;;;;;;19.85;5.13;;;32.00;24.20;;;;;;5076517;28;20124;-61
2023/06/11 02:37:28;;;;;;;18.95;6.13;;;31.90;23.00;;;;;;5077377;28;20053;-65
2023/06/11 02:39:54;;;;;;;34.05;6.78;;;31.80;21.70;;;;;;5080417;28;20415;-62
2023/06/11 02:42:21;;;;;;;20.75;4.55;;;31.60;21.30;;;;;;5082950;28;20063;-60
2023/06/11 02:44:47;;;;;;;17.85;4.32;;;31.50;21.20;;;;;;5084334;28;20062;-62
2023/06/11 02:47:14;;;;;;;14.02;4.25;;;31.40;21.80;;;;;;5082660;28;20060;-62
2023/06/11 02:49:40;;;;;;;20.95;5.13;;;31.40;22.70;;;;;;5079796;28;20075;-63
2023/06/11 02:52:07;;;;;;;24.85;5.75;;;31.40;23.40;;;;;;5080306;28;20078;-63
2023/06/11 02:54:33;;;;;;;21.40;5.80;;;31.30;24.50;;;;;;5078347;28;20529;-63
2023/06/11 02:56:59;;;;;;;24.00;6.80;;;31.30;25.00;;;;;;5082498;28;20091;-62
2023/06/11 02:59:26;;;;;;;18.80;5.53;;;31.10;25.90;;;;;;5082547;28;20120;-62
2023/06/11 03:01:53;;;;;;;25.08;5.82;;;31.00;26.90;;;;;;5079663;28;20663;-65
2023/06/11 03:04:20;;;;;;;21.60;5.80;;;31.00;27.80;;;;;;5077952;28;20084;-63
2023/06/11 03:06:46;;;;;;;27.35;5.30;;;30.90;28.60;;;;;;5078297;28;20166;-64
2023/06/11 03:09:12;;;;;;;35.88;5.80;;;30.80;29.90;;;;;;5076440;28;20086;-66
2023/06/11 03:11:39;;;;;;;21.52;5.85;;;30.70;30.20;;;;;;5078617;28;20080;-64
2023/06/11 03:14:05;;;;;;;23.38;5.18;;;30.60;30.80;;;;;;5081635;28;20072;-63
2023/06/11 03:16:33;;;;;;;33.45;5.95;;;30.60;31.50;;;;;;5079471;28;20161;-65
2023/06/11 03:18:59;;;;;;;37.15;5.05;;;30.50;31.80;;;;;;5080403;28;20079;-61
2023/06/11 03:21:25;;;;;;;34.50;5.38;;;30.40;32.10;;;;;;5083019;28;20104;-61
2023/06/11 03:23:52;;;;;;;39.97;5.63;;;30.40;32.90;;;;;;5088307;28;20083;-63
2023/06/11 03:26:18;;;;;;;24.38;5.60;;;30.30;33.30;;;;;;5078594;28;20063;-64
2023/06/11 03:28:45;;;;;;;42.22;8.32;;;30.30;33.70;;;;;;5073127;28;20079;-64
2023/06/11 03:31:11;;;;;;;31.23;5.43;;;30.20;34.10;;;;;;5083172;28;20070;-63
2023/06/11 03:33:37;;;;;;;21.10;4.03;;;30.10;34.80;;;;;;5078659;28;20066;-62
2023/06/11 03:36:04;;;;;;;22.02;3.60;;;30.10;36.20;;;;;;5079685;28;20091;-63
2023/06/11 03:38:30;;;;;;;17.45;3.35;;;30.00;37.00;;;;;;5075572;28;20077;-64
2023/06/11 03:40:57;;;;;;;26.58;4.47;;;30.00;38.10;;;;;;5076237;28;20057;-64
2023/06/11 03:43:23;;;;;;;13.10;3.47;;;30.00;37.90;;;;;;5073745;28;20081;-64
2023/06/11 03:45:49;;;;;;;12.60;3.13;;;29.90;38.40;;;;;;5076340;28;20182;-62
2023/06/11 03:48:16;;;;;;;13.00;3.20;;;29.80;38.50;;;;;;5076145;28;20523;-64
2023/06/11 03:50:42;;;;;;;12.27;3.15;;;29.70;38.70;;;;;;5081497;28;20161;-63
2023/06/11 03:53:09;;;;;;;19.02;2.95;;;29.70;39.00;;;;;;5081699;28;20167;-64
2023/06/11 03:55:35;;;;;;;16.42;3.42;;;29.60;39.40;;;;;;5078686;28;20498;-63
2023/06/11 03:58:02;;;;;;;12.02;3.03;;;29.60;39.30;;;;;;5074365;28;20115;-64
2023/06/11 04:00:31;;;;;;;15.40;2.80;;;29.50;39.10;;;;;;5074155;28;20069;-64
2023/06/11 04:02:59;;;;;;;11.27;2.53;;;29.50;39.30;;;;;;5074030;28;20160;-62
2023/06/11 04:05:25;;;;;;;16.15;2.78;;;29.40;38.90;;;;;;5076702;28;20423;-61
2023/06/11 04:07:52;;;;;;;11.77;3.47;;;29.30;38.50;;;;;;5075384;28;20069;-64
2023/06/11 04:10:18;;;;;;;15.32;3.22;;;29.30;40.00;;;;;;5074688;28;20105;-63
2023/06/11 04:12:45;;;;;;;7.18;2.80;;;29.20;39.50;;;;;;5077030;28;20118;-64
2023/06/11 04:15:12;;;;;;;7.72;2.47;;;29.20;36.20;;;;;;5079609;28;20085;-64
2023/06/11 04:17:39;;;;;;;14.32;3.45;;;29.20;37.10;;;;;;5076168;28;20062;-63
2023/06/11 04:20:06;;;;;;;14.50;4.70;;;29.10;37.60;;;;;;5075805;28;20081;-64
2023/06/11 04:22:32;;;;;;;12.77;5.07;;;29.10;39.00;;;;;;5074820;28;20061;-64
2023/06/11 04:24:59;;;;;;;11.90;5.70;;;29.10;39.50;;;;;;5083593;28;20118;-64
2023/06/11 04:27:25;;;;;;;16.05;7.20;;;29.00;39.00;;;;;;5079193;28;20086;-62
2023/06/11 04:29:56;;;;;;;15.40;7.72;;;28.80;39.90;;;;;;5073340;28;20243;-65
2023/06/11 04:32:26;;;;;;;22.65;8.07;;;28.80;40.80;;;;;;5077031;28;20072;-64
2023/06/11 04:34:56;;;;;;;23.63;7.82;;;28.70;41.30;;;;;;5075093;28;20169;-63
2023/06/11 04:37:24;;;;;;;20.33;6.45;;;28.60;41.60;;;;;;5076484;28;20069;-62
2023/06/11 04:39:50;;;;;;;18.42;6.07;;;28.50;41.80;;;;;;5077556;28;20092;-62
2023/06/11 04:42:17;;;;;;;32.05;7.15;;;28.50;42.10;;;;;;5077686;28;20145;-62
2023/06/11 04:44:47;;;;;;;20.85;6.50;;;28.50;42.30;;;;;;5074145;28;20090;-64
2023/06/11 04:47:14;;;;;;;19.05;6.30;;;28.40;41.80;;;;;;5075849;28;20090;-64
2023/06/11 04:49:43;;;;;;;23.98;8.40;;;28.30;42.00;;;;;;5074934;28;20066;-64
2023/06/11 04:52:10;;;;;;;20.73;5.97;;;28.20;42.00;;;;;;5076473;28;20087;-63
2023/06/11 04:54:36;;;;;;;18.05;5.93;;;28.30;42.70;;;;;;5079370;28;20073;-63
2023/06/11 04:57:02;;;;;;;26.52;6.18;;;28.10;42.40;;;;;;5077612;28;20082;-63
2023/06/11 04:59:29;;;;;;;29.63;6.80;;;28.00;42.80;;;;;;5075463;28;20175;-64
2023/06/11 05:01:55;;;;;;;32.17;6.60;;;27.90;42.70;;;;;;5073975;28;20065;-62
2023/06/11 05:04:22;;;;;;;26.73;6.43;;;27.80;43.30;;;;;;5080248;28;20074;-63
2023/06/11 05:06:48;;;;;;;38.40;5.78;;;27.70;43.20;;;;;;5079003;28;20546;-64
2023/06/11 05:09:15;;;;;;;22.65;5.55;;;27.70;44.10;;;;;;5075328;28;20171;-63
2023/06/11 05:11:44;;;;;;;29.00;5.55;;;27.50;44.50;;;;;;5076138;28;20094;-62
2023/06/11 05:14:11;;;;;;;21.63;7.45;;;27.50;44.60;;;;;;5078417;28;20076;-62
2023/06/11 05:16:38;;;;;;;35.53;12.57;;;27.50;44.60;;;;;;5077649;28;20129;-62
2023/06/11 05:19:06;;;;;;;32.80;6.18;;;27.40;44.40;;;;;;5080536;28;20433;-62
2023/06/11 05:21:32;;;;;;;19.00;6.35;;;27.40;44.30;;;;;;5075249;28;20108;-62
2023/06/11 05:24:06;;;;;;;17.58;5.80;;;27.30;44.80;;;;;;5075628;28;20083;-60
2023/06/11 05:26:34;;;;;;;10.18;4.40;;;27.20;45.80;;;;;;5075460;28;20168;-62
2023/06/11 05:29:01;;;;;;;31.85;4.38;;;27.10;44.20;;;;;;5074791;28;20525;-63
2023/06/11 05:31:29;;;;;;;16.38;4.70;;;27.20;44.90;;;;;;5074327;28;20486;-62
2023/06/11 05:33:56;;;;;;;25.20;9.18;;;27.10;45.50;;;;;;5072077;28;20078;-65
2023/06/11 05:36:22;;;;;;;32.72;13.10;;;27.10;45.80;;;;;;5077318;28;20072;-63
2023/06/11 05:38:51;;;;;;;33.78;12.50;;;26.90;45.90;;;;;;5076605;28;20080;-63
2023/06/11 05:41:18;;;;;;;40.53;12.80;;;26.90;46.20;;;;;;5080011;28;20068;-62
2023/06/11 05:43:45;;;;;;;20.75;6.65;;;26.70;46.40;;;;;;5080304;28;20596;-62
2023/06/11 05:46:12;;;;;;;28.02;6.70;;;26.70;46.90;;;;;;5082784;28;20061;-62
2023/06/11 05:48:39;;;;;;;19.05;5.20;;;26.60;46.40;;;;;;5077752;28;20533;-64
2023/06/11 05:51:05;;;;;;;28.88;5.82;;;26.40;46.50;;;;;;5078962;28;20095;-63
2023/06/11 05:53:32;;;;;;;18.42;5.95;;;26.30;46.20;;;;;;5076527;28;20077;-63
2023/06/11 05:56:03;;;;;;;28.20;6.30;;;26.20;47.10;;;;;;5075734;28;20071;-62
2023/06/11 05:58:33;;;;;;;20.90;5.70;;;26.10;47.50;;;;;;5075590;28;20556;-63
2023/06/11 06:01:03;;;;;;;30.48;5.68;;;26.10;47.60;;;;;;5071206;28;20095;-62
2023/06/11 06:03:31;;;;;;;19.85;4.20;;;26.00;47.80;;;;;;5077112;28;20078;-65
2023/06/11 06:06:01;;;;;;;22.80;5.75;;;26.00;48.00;;;;;;5074071;28;20129;-63
2023/06/11 06:08:31;;;;;;;17.35;4.88;;;25.90;47.80;;;;;;5073020;28;20082;-62
2023/06/11 06:10:58;;;;;;;21.80;6.45;;;25.90;48.30;;;;;;5072834;28;20079;-62
2023/06/11 06:13:25;;;;;;;19.05;6.03;;;25.80;48.00;;;;;;5073815;28;20076;-64
2023/06/11 06:15:55;;;;;;;19.60;5.68;;;25.80;47.80;;;;;;5074186;28;20162;-65
2023/06/11 06:18:21;;;;;;;15.10;4.90;;;25.70;47.80;;;;;;5076155;28;20138;-62
2023/06/11 06:20:48;;;;;;;20.83;4.43;;;25.70;48.30;;;;;;5073674;28;20233;-61
2023/06/11 06:23:14;;;;;;;25.35;4.35;;;25.60;48.30;;;;;;5071981;28;20476;-62
2023/06/11 06:25:41;;;;;;;15.95;4.25;;;25.50;48.30;;;;;;5075575;28;20079;-62
2023/06/11 06:28:08;;;;;;;15.23;3.80;;;25.50;49.20;;;;;;5075958;28;20075;-61
2023/06/11 06:30:34;;;;;;;16.08;4.28;;;25.40;48.30;;;;;;5077474;28;20640;-63
2023/06/11 06:33:01;;;;;;;10.90;3.42;;;25.50;48.10;;;;;;5079081;28;20068;-63
2023/06/11 06:35:33;;;;;;;15.65;3.97;;;25.60;48.90;;;;;;5077531;28;20091;-63
2023/06/11 06:38:02;;;;;;;20.85;4.63;;;25.60;48.20;;;;;;5079714;28;20172;-63
2023/06/11 06:40:29;;;;;;;15.65;3.92;;;25.60;48.60;;;;;;5081829;28;20095;-61
2023/06/11 06:42:55;;;;;;;18.90;4.18;;;25.50;48.70;;;;;;5079107;28;20064;-63
2023/06/11 06:45:21;;;;;;;24.42;4.60;;;25.50;48.50;;;;;;5081999;28;20083;-62
2023/06/11 06:47:48;;;;;;;24.35;4.30;;;25.50;48.90;;;;;;5081013;28;20082;-62
2023/06/11 06:50:14;;;;;;;15.80;3.78;;;25.40;48.70;;;;;;5081801;28;20081;-62
2023/06/11 06:52:41;;;;;;;18.92;3.97;;;25.40;49.30;;;;;;5082536;28;20089;-62
2023/06/11 06:55:08;;;;;;;22.02;3.83;;;25.40;48.90;;;;;;5085777;28;20124;-63
2023/06/11 06:57:35;;;;;;;25.33;4.05;;;25.30;49.20;;;;;;5086677;28;20098;-64
2023/06/11 07:00:02;;;;;;;22.02;4.65;;;25.30;49.80;;;;;;5080984;28;20084;-63
2023/06/11 07:02:28;;;;;;;18.15;4.43;;;25.20;49.60;;;;;;5087522;28;20071;-63
2023/06/11 07:04:55;;;;;;;17.08;4.25;;;25.20;50.20;;;;;;5082029;28;20231;-64
2023/06/11 07:07:24;;;;;;;13.55;3.35;;;25.00;49.50;;;;;;5088194;28;20063;-65
2023/06/11 07:09:50;;;;;;;12.23;3.65;;;25.00;49.90;;;;;;5085479;28;20563;-63
2023/06/11 07:12:17;;;;;;;12.02;2.97;;;24.90;50.10;;;;;;5084053;28;20084;-62
2023/06/11 07:14:43;;;;;;;13.93;3.50;;;24.90;49.90;;;;;;5083468;28;20605;-62
2023/06/11 07:17:10;;;;;;;13.20;3.40;;;24.90;49.50;;;;;;5086376;28;20094;-62
2023/06/11 07:19:36;;;;;;;19.48;4.10;;;24.90;50.70;;;;;;5083687;28;20084;-64
2023/06/11 07:22:03;;;;;;;10.68;3.17;;;24.80;50.10;;;;;;5085838;28;20493;-62
2023/06/11 07:24:29;;;;;;;15.30;3.83;;;24.70;50.30;;;;;;5081642;28;20082;-65
2023/06/11 07:26:56;;;;;;;19.58;4.10;;;24.70;50.60;;;;;;5082022;28;20194;-63
2023/06/11 07:29:24;;;;;;;13.65;3.83;;;24.70;50.30;;;;;;5084673;28;20080;-63
2023/06/11 07:31:50;;;;;;;14.65;4.07;;;24.80;49.80;;;;;;5083509;28;20080;-64
2023/06/11 07:34:17;;;;;;;12.98;3.53;;;24.80;49.80;;;;;;5080188;28;20071;-63
2023/06/11 07:36:43;;;;;;;15.20;4.10;;;24.70;50.40;;;;;;5082649;28;20083;-63
2023/06/11 07:39:09;;;;;;;14.88;3.45;;;24.70;50.10;;;;;;5085537;28;20095;-63
2023/06/11 07:41:37;;;;;;;17.67;3.80;;;24.70;49.70;;;;;;5086927;28;20087;-65
2023/06/11 07:44:04;;;;;;;16.83;6.63;;;24.70;49.80;;;;;;5084594;28;20104;-59
2023/06/11 07:46:30;;;;;;;11.75;4.18;;;24.70;51.50;;;;;;5084044;28;20120;-62
2023/06/11 07:48:56;;;;;;;9.93;3.60;;;24.70;51.30;;;;;;5081727;28;20183;-65
2023/06/11 07:51:23;;;;;;;15.27;4.05;;;24.70;51.00;;;;;;5084918;28;20125;-62
2023/06/11 07:53:50;;;;;;;18.88;3.72;;;24.70;50.10;;;;;;5081430;28;20110;-65
2023/06/11 07:56:17;;;;;;;12.30;4.63;;;24.80;49.70;;;;;;5082937;28;20080;-64
2023/06/11 07:58:43;;;;;;;15.73;4.72;;;24.90;49.70;;;;;;5084236;28;20156;-63
2023/06/11 08:01:10;;;;;;;19.73;5.47;;;24.90;49.70;;;;;;5082472;28;20158;-63
2023/06/11 08:03:36;;;;;;;15.63;3.97;;;24.80;49.70;;;;;;5083042;28;20068;-65
2023/06/11 08:06:02;;;;;;;21.27;3.60;;;24.90;49.70;;;;;;5084921;28;20071;-65
2023/06/11 08:08:29;;;;;;;18.23;3.78;;;24.90;49.60;;;;;;5084505;28;20136;-65
2023/06/11 08:10:56;;;;;;;23.58;4.22;;;24.90;49.60;;;;;;5085731;28;20079;-64
2023/06/11 08:13:23;;;;;;;17.83;4.97;;;24.90;49.70;;;;;;5077508;28;20068;-62
2023/06/11 08:15:49;;;;;;;18.67;4.50;;;24.80;49.50;;;;;;5079942;28;20546;-63
2023/06/11 08:18:16;;;;;;;20.80;4.70;;;24.80;49.60;;;;;;5081865;28;20086;-63
2023/06/11 08:20:42;;;;;;;23.13;4.15;;;24.80;49.70;;;;;;5085829;28;20067;-63
2023/06/11 08:23:09;;;;;;;24.60;5.25;;;24.80;49.90;;;;;;5075300;28;20534;-63
2023/06/11 08:25:36;;;;;;;23.88;4.82;;;24.80;50.40;;;;;;5079937;28;20198;-63
2023/06/11 08:28:03;;;;;;;14.50;4.10;;;24.70;49.90;;;;;;5079388;28;20512;-64
2023/06/11 08:30:29;;;;;;;25.38;4.90;;;24.70;50.00;;;;;;5077252;28;20481;-62
2023/06/11 08:32:56;;;;;;;26.40;4.47;;;24.70;49.80;;;;;;5081051;28;20175;-67
2023/06/11 08:35:22;;;;;;;13.95;4.05;;;24.70;49.80;;;;;;5078500;28;20112;-65
2023/06/11 08:37:48;;;;;;;22.30;3.90;;;24.70;50.50;;;;;;5081127;28;20155;-65
2023/06/11 08:40:15;;;;;;;18.40;3.65;;;24.60;49.90;;;;;;5080045;28;20532;-66
2023/06/11 08:42:42;;;;;;;17.20;4.78;;;24.60;50.10;;;;;;5078464;28;20071;-65
2023/06/11 08:45:08;;;;;;;30.58;4.57;;;24.60;50.20;;;;;;5082230;28;20060;-66
2023/06/11 08:47:41;;;;;;;45.30;5.88;;;24.60;50.20;;;;;;5078942;28;20067;-65
2023/06/11 08:50:08;;;;;;;22.77;5.18;;;24.50;50.20;;;;;;5077252;28;20072;-66
2023/06/11 08:52:35;;;;;;;16.25;5.28;;;24.60;50.40;;;;;;5078452;28;20163;-66
2023/06/11 08:55:03;;;;;;;30.45;5.60;;;24.60;50.50;;;;;;5080745;28;20129;-64
2023/06/11 08:57:31;;;;;;;26.17;4.95;;;24.60;51.30;;;;;;5076978;28;20171;-66
2023/06/11 08:59:57;;;;;;;30.92;6.00;;;24.60;52.10;;;;;;5076068;28;20111;-66
2023/06/11 09:02:25;;;;;;;24.00;4.88;;;24.70;53.50;;;;;;5081271;28;20088;-66
2023/06/11 09:04:52;;;;;;;16.70;4.57;;;24.50;56.20;;;;;;5083109;28;20420;-65
2023/06/11 09:07:25;;;;;;;19.05;3.80;;;24.60;57.20;;;;;;5077846;28;20068;-66
2023/06/11 09:10:07;;;;;;;16.65;4.03;;;24.70;58.10;;;;;;5081067;28;20067;-65
2023/06/11 09:12:34;;;;;;;19.73;4.50;;;24.70;58.30;;;;;;5081340;28;20095;-66
2023/06/11 09:15:01;;;;;;;21.38;3.90;;;24.60;58.40;;;;;;5078326;28;20525;-67
2023/06/11 09:17:35;;;;;;;16.35;4.60;;;24.60;58.10;;;;;;5082667;28;20470;-62
2023/06/11 09:20:07;;;;;;;14.45;4.38;;;24.60;58.60;;;;;;5083136;28;20454;-65
2023/06/11 09:22:36;;;;;;;12.73;4.15;;;24.50;59.70;;;;;;5079754;28;20083;-65
2023/06/11 09:25:09;;;;;;;16.80;4.03;;;24.60;59.20;;;;;;5078343;28;20084;-65
2023/06/11 09:27:37;;;;;;;20.10;4.10;;;24.60;58.90;;;;;;5083425;28;20064;-65
2023/06/11 09:30:17;;;;;;;19.25;4.60;;;24.50;57.50;;;;;;5078084;28;20088;-65
2023/06/11 09:32:46;;;;;;;12.73;4.00;;;24.50;56.20;;;;;;5078173;28;20075;-65
2023/06/11 09:35:14;;;;;;;28.95;4.80;;;24.30;55.80;;;;;;5077218;28;20151;-65
2023/06/11 09:37:43;;;;;;;16.38;5.30;;;24.30;54.40;;;;;;5078612;28;20072;-66
2023/06/11 09:40:12;;;;;;;15.35;6.00;;;24.40;54.40;;;;;;5080001;28;20183;-65
2023/06/11 09:42:40;;;;;;;26.10;6.63;;;24.40;53.80;;;;;;5082179;28;20172;-64
2023/06/11 09:45:16;;;;;;;19.95;6.20;;;24.50;54.20;;;;;;5079920;28;20581;-63
2023/06/11 09:47:44;;;;;;;22.98;7.47;;;24.40;53.50;;;;;;5077257;28;20071;-65
2023/06/11 09:50:21;;;;;;;26.70;8.60;;;24.30;53.40;;;;;;5079820;28;20072;-64
2023/06/11 09:52:48;;;;;;;30.35;9.15;;;24.30;53.30;;;;;;5079457;28;20471;-66
2023/06/11 09:55:14;;;;;;;30.50;9.63;;;24.20;53.30;;;;;;5074651;28;20099;-65
2023/06/11 09:57:42;;;;;;;21.88;9.20;;;24.10;54.00;;;;;;5080769;28;20496;-64
2023/06/11 10:00:11;;;;;;;27.35;10.00;;;24.10;53.90;;;;;;5073682;28;20088;-66
2023/06/11 10:02:42;;;;;;;21.25;10.18;;;24.10;53.50;;;;;;5072807;28;20982;-66
2023/06/11 10:05:10;;;;;;;31.10;10.32;;;24.20;53.40;;;;;;5077472;28;20103;-64
2023/06/11 10:07:49;;;;;;;24.42;9.85;;;24.20;53.60;;;;;;5080596;28;20109;-65
2023/06/11 10:10:21;;;;;;;38.17;10.27;;;24.10;54.70;;;;;;5075427;28;20158;-64
2023/06/11 10:12:54;;;;;;;28.73;10.23;;;24.10;54.30;;;;;;5078449;28;20091;-66
2023/06/11 10:15:24;;;;;;;26.75;10.13;;;24.00;55.30;;;;;;5078384;28;20064;-67
2023/06/11 10:17:53;;;;;;;29.58;9.55;;;24.00;55.00;;;;;;5075639;28;20088;-65
2023/06/11 10:20:27;;;;;;;393.58;27.35;;;24.10;54.60;;;;;;5080446;28;20197;-66
2023/06/11 10:23:07;;;;;;;104.75;13.35;;;24.20;54.10;;;;;;5079980;28;20953;-65
2023/06/11 10:25:39;;;;;;;49.15;9.80;;;24.20;54.80;;;;;;5076563;28;20071;-66
2023/06/11 10:28:06;;;;;;;31.35;9.52;;;24.20;53.90;;;;;;5085390;28;20063;-65
2023/06/11 10:30:33;;;;;;;34.63;10.07;;;24.20;53.70;;;;;;5085454;28;20079;-65
2023/06/11 10:33:00;;;;;;;20.35;8.57;;;24.20;53.80;;;;;;5083693;28;20072;-65
2023/06/11 10:35:36;;;;;;;17.63;6.78;;;24.20;54.80;;;;;;5081885;28;20087;-65
2023/06/11 10:38:04;;;;;;;10.18;4.70;;;24.00;53.80;;;;;;5083499;28;20071;-66
2023/06/11 10:40:35;;;;;;;12.15;4.10;;;23.90;53.60;;;;;;5087082;28;20180;-64
2023/06/11 10:43:05;;;;;;;10.88;3.95;;;23.90;53.20;;;;;;5085545;28;20130;-65
2023/06/11 10:45:38;;;;;;;22.30;4.68;;;23.90;52.60;;;;;;5082122;28;20068;-65
2023/06/11 10:48:05;;;;;;;10.50;4.03;;;23.80;52.20;;;;;;5081251;28;20098;-64
2023/06/11 10:50:32;;;;;;;11.98;3.88;;;23.90;52.90;;;;;;5086062;28;20078;-67
2023/06/11 10:52:59;;;;;;;11.98;4.15;;;23.80;52.90;;;;;;5086389;28;20079;-67
2023/06/11 10:55:29;;;;;;;16.10;4.05;;;23.80;52.80;;;;;;5079155;28;20112;-65
2023/06/11 10:57:57;;;;;;;12.98;3.78;;;23.90;52.90;;;;;;5081103;28;20533;-67
2023/06/11 11:00:28;;;;;;;14.90;3.72;;;23.80;52.40;;;;;;5082819;28;20096;-66
2023/06/11 11:02:58;;;;;;;9.63;3.00;;;23.80;52.90;;;;;;5081178;28;20068;-66
2023/06/11 11:05:28;;;;;;;11.60;3.58;;;23.80;52.00;;;;;;5084303;28;20105;-66
2023/06/11 11:07:55;;;;;;;11.68;3.75;;;23.80;53.50;;;;;;5082806;28;20072;-66
2023/06/11 11:10:26;;;;;;;10.07;3.25;;;23.70;53.30;;;;;;5084131;28;20082;-66
2023/06/11 11:12:54;;;;;;;8.75;3.47;;;23.60;52.50;;;;;;5079827;28;20525;-67
2023/06/11 11:15:21;;;;;;;10.40;3.15;;;23.60;52.90;;;;;;5082629;28;20072;-67
2023/06/11 11:17:49;;;;;;;8.85;3.17;;;23.50;53.10;;;;;;5078595;28;20072;-65
2023/06/11 11:20:20;;;;;;;14.98;3.05;;;23.40;53.80;;;;;;5079178;28;20605;-64
2023/06/11 11:22:54;;;;;;;12.35;3.45;;;23.30;54.50;;;;;;5083241;28;20067;-68
2023/06/11 11:25:22;;;;;;;11.73;3.10;;;23.30;54.90;;;;;;5081214;28;20555;-66
2023/06/11 11:27:49;;;;;;;10.88;3.78;;;23.20;54.60;;;;;;5080113;28;20112;-64
2023/06/11 11:30:19;;;;;;;12.52;3.70;;;23.20;55.40;;;;;;5084002;28;20059;-67
2023/06/11 11:32:46;;;;;;;13.18;3.45;;;23.10;54.60;;;;;;5082781;28;20074;-67
2023/06/11 11:35:14;;;;;;;11.25;3.88;;;23.10;55.60;;;;;;5083285;28;20075;-65
2023/06/11 11:37:45;;;;;;;19.85;4.50;;;23.10;55.10;;;;;;5079588;28;20083;-64
2023/06/11 11:40:12;;;;;;;19.02;4.22;;;23.10;54.50;;;;;;5080394;28;20177;-65
2023/06/11 11:42:49;;;;;;;7.72;3.00;;;23.10;54.40;;;;;;5080037;28;20075;-65
2023/06/11 11:45:17;;;;;;;8.20;2.97;;;23.00;54.70;;;;;;5080783;28;20117;-68
2023/06/11 11:47:52;;;;;;;12.55;3.00;;;23.00;55.90;;;;;;5081230;28;20146;-66
2023/06/11 11:50:25;;;;;;;11.40;3.17;;;22.90;55.50;;;;;;5079730;28;20078;-67
2023/06/11 11:53:05;;;;;;;8.77;3.40;;;22.90;56.20;;;;;;5080828;28;20067;-68
2023/06/11 11:55:39;;;;;;;11.27;3.00;;;22.80;55.80;;;;;;5080863;28;20086;-62
2023/06/11 11:58:08;;;;;;;14.32;3.65;;;22.80;56.80;;;;;;5079393;28;20517;-65
2023/06/11 12:00:37;;;;;;;12.82;3.55;;;22.80;56.20;;;;;;5080232;28;20650;-64
2023/06/11 12:03:09;;;;;;;19.77;4.13;;;22.70;55.70;;;;;;5083594;28;20064;-67
2023/06/11 12:05:39;;;;;;;12.30;3.15;;;22.70;55.90;;;;;;5082458;28;20063;-66
2023/06/11 12:08:06;;;;;;;12.88;3.90;;;22.70;56.90;;;;;;5083192;28;20162;-67
2023/06/11 12:10:33;;;;;;;10.70;3.33;;;22.60;56.10;;;;;;5088437;28;20602;-64
2023/06/11 12:13:00;;;;;;;11.82;3.92;;;22.70;56.90;;;;;;5080457;28;20071;-65
2023/06/11 12:15:27;;;;;;;9.68;3.00;;;22.70;56.40;;;;;;5083255;28;20501;-65
2023/06/11 12:17:54;;;;;;;13.57;3.15;;;22.70;56.50;;;;;;5083110;28;20205;-65
2023/06/11 12:20:23;;;;;;;13.27;3.45;;;22.60;56.70;;;;;;5082572;28;20791;-65
2023/06/11 12:22:51;;;;;;;15.73;3.70;;;22.60;57.50;;;;;;5080410;28;20076;-64
2023/06/11 12:25:17;;;;;;;12.77;3.65;;;22.50;57.40;;;;;;5079988;28;20114;-65
2023/06/11 12:27:44;;;;;;;10.82;3.88;;;22.40;57.60;;;;;;5083202;28;20068;-65
2023/06/11 12:30:11;;;;;;;18.10;3.47;;;22.30;58.20;;;;;;5082312;28;20162;-65
2023/06/11 12:32:40;;;;;;;15.85;4.45;;;22.40;59.50;;;;;;5080264;28;20546;-66
2023/06/11 12:35:08;;;;;;;15.98;3.70;;;22.40;59.00;;;;;;5079781;28;20164;-64
2023/06/11 12:37:36;;;;;;;12.00;4.03;;;22.40;59.70;;;;;;5082761;28;20082;-65
2023/06/11 12:40:04;;;;;;;12.98;4.15;;;22.40;60.20;;;;;;5085326;28;20133;-63
2023/06/11 12:42:32;;;;;;;17.33;3.72;;;22.30;60.60;;;;;;5083453;28;20068;-65